Login   Iscriviti    Portale ilVolo.it    Indice Forum    Aerofan.it PhotoGallery    Cerca    FAQ    Regolamento

Il meteo su Marblehead

AVIATION TOP 100 - www.avitop.com Avitop.com

Indice  »  Aircraft Engineering Area  »  Aircraft Investigation Reports & Analysis

 

 

Regole del forum


Il regolamento dell'area si trova qui.



Apri un nuovo argomento Rispondi all’argomento  [ 1 messaggio ] 
Autore Messaggio
 Oggetto del messaggio: Emirates Boeing 777-300 rientra in emergenza a MXP
 Messaggio Inviato: 14/07/2021, 14:38 
A&P Troubleshooter
A&P Troubleshooter
Avatar utente
Non connesso
Uomo
Iscritto il: 20/03/2008
Messaggi: 15084
Località: Dubai U.A.E:
Età: 62
Brutto inconveniente ad un B773 di Emirates!

Da AV Herald:-
An Emirates Boeing 777-300 , registration A6-ECF performing flight EK-205 from Milan Malpansa (Italy) to New York JFK,NY (USA), was climbing out of Milan's runway 17R when the aircraft flew through a hailstorm and received hail impact damage to nose cone, windshield (cracked) engine inlets and wings. The crew stopped the climb at FL210, dumped fuel and returned to Malpensa for a safe landing on runway 35L about 90 minutes after landing.

The aircraft is still on the ground 19 hours after landing back.

Metars:
LIML 131720Z 24008KT 190V310 9999 FEW060 27/11 Q1005 NOSIG=
LIML 131650Z 20012KT 9999 FEW030 SCT060 28/08 Q1005 NOSIG=
LIML 131620Z 17011KT 9999 FEW030 SCT070 29/14 Q1004 NOSIG=
LIML 131550Z 14014KT 9999 FEW030 SCT060 28/19 Q1004 NOSIG=
LIML 131520Z 10011KT 9999 FEW030 SCT080 28/18 Q1004 NOSIG=
LIML 131450Z 08009KT 040V130 9999 FEW020CB SCT030 27/19 Q1003 NOSIG=
LIML 131420Z 08010KT 050V110 9999 -RA FEW020CB SCT030 BKN070 25/18 Q1004 TEMPO TSRA=
LIML 131350Z 09014KT 050V120 9999 SCT030 SCT060 26/18 Q1005 TEMPO SHRA=
LIML 131320Z 11014KT 9999 SCT030 SCT060 26/20 Q1005 TEMPO SHRA=
LIML 131250Z 10014KT 9999 FEW030 27/18 Q1004 NOSIG=
LIML 131220Z 13014KT 9999 FEW030 28/20 Q1005 NOSIG=
LIML 131150Z 11014KT 9999 FEW045 28/18 Q1005 NOSIG=
LIML 131120Z 15013KT 9999 FEW045 28/19 Q1005 NOSIG=
LIML 131050Z 13015KT 9999 FEW030 SCT060 26/21 Q1005 NOSIG=


Immagine

Immagine

Immagine

Immagine

Immagine

Immagine

Immagine

Immagine

...

Steve

_________________
Noi volatori stanchi
Senza pista d'atterraggio
Che per inerzia o per fortuna
Ci troviamo sempre in viaggio ......


Immagine


Top 
 Profilo  
 
Visualizza ultimi messaggi:  Ordina per  
 
Apri un nuovo argomento Rispondi all’argomento  [ 1 messaggio ] 

Indice  »  Aircraft Engineering Area  »  Aircraft Investigation Reports & Analysis


 

Chi c’è in linea

Visitano il forum: Nessuno e 1 ospite

 
 

 
Non puoi aprire nuovi argomenti
Non puoi rispondere negli argomenti
Non puoi modificare i tuoi messaggi
Non puoi cancellare i tuoi messaggi
Non puoi inviare allegati

Cerca per:
Vai a: